Route Details

Aircraft Information
Group: North America Fleet
Types: B738, B752, B762, B763
Route Data
Distance: 928nm
Duration: 3h 00m
Origin METAR: KLAL 010455Z AUTO 00000KT 10SM CLR 17/16 A3019 RMK AO2 T01720159 402810151
Dest. METAR: KMCI 010453Z 21005KT 10SM CLR M08/M16 A3036 RMK AO2 SLP295 T10831156
Freight Data
(for Feb 1, 2023)
Load Factor:
50%
Manifested Cargo: 60,080lbs
Financial History
Total Freight: 52,560lbs
Average Load: 0lbs/flt
Fuel Used: 18,320lbs
Avg. Fuel Used: 0lbs/flt
Fuel Expense: $10,442
Avg. Fuel Expense: $0
Avg. Fuel Cost: $0/lbs
Total Gross Income: $137,707
Pilot Pay: $269
Total Expenses: $28,624
Total Revenue: $97,594
Average Revenue: $0

Capitol Logistics 377




KLAL
Lakeland Linder Regional Airport
Lakeland, Florida
KMCI
Kansas City International Airport
Kansas City, Missouri

Activity Log

Date Flight Route Aircraft Duration
11/09/2022 CPX377 DCT NITTS DCT PATOY Q116 ZAVEL DCT KRTNY MHOMS1 B763 2h 39m